Terminal Aerodrome Forecast
Issued by NWS

Home | Current Version | Previous Version | Text Only | Print | Product List | Glossary On
Versions: 1 2 3 4 5 6 7 8 9 10 11 12 13 14 15 16 17 18 19 20
000
FTUS44 KTSA 211728
TAFXNA
TAF
KXNA 211728Z 2118/2218 36010KT P6SM VCSH SCT015 BKN080
      TEMPO 2118/2121 BKN015
     FM212100 35010KT P6SM SCT025 BKN080
     FM220000 35004KT P6SM SKC
     FM220800 00000KT 1SM BR SKC
      TEMPO 2210/2214 1/4SM FG VV002
     FM221400 00000KT 3SM BR SKC
     FM221500 00000KT P6SM SKC=

USA.gov is the U.S. government's official web portal to all federal, state and local government web resources and services.